Tropical Cyclones
[Index]
Main Index Home Page Stock Weather Photos Extreme Storms Discussion Storm News and Storm Chasing Reports Tropical Cyclones / Hurricanes / Typhoons Weather Data and Links Wild Fires / Bushfires Weather Observation Techniques Weather Picture Catalogue Tornado Pictures and Reports Stock Video Footage and DVDs for sale
Season 1944-1945 Tropical Cyclone 194507 Track Map
Season 1944-1945 Summaries: [BoM-AU] [JTWC-AU] [JTWC-SIO] [JTWC-SPAC] [JTWC-SH]
<<- Previous TC | JTWC 1944-1945 Season | Next TC ->>

click for intensity scale information  Lat/long Grid: Show Hide

 Date Labels: Show Hide

Joint Typhoon Warning Centre Cyclone Data

Name: 194507
Number: 7 / 4507

09 Feb 1945 00:00 UTC to 18 Feb 1945 00:00 UTC

    date/time    lat    long     hPa   cat  kts
1945-02-09 00    8.8    73.2                              
1945-02-09 06    9.0    71.6                              
1945-02-09 12    9.2    70.1                              
1945-02-09 18    9.5    68.6                              
1945-02-10 00    9.9    67.2                              
1945-02-10 06   10.5    66.1                              
1945-02-10 12   11.2    65.1                              
1945-02-10 18   11.8    63.8                              
1945-02-11 00   12.2    62.5                              
1945-02-11 06   12.5    61.1                              
1945-02-11 12   12.7    59.7                              
1945-02-11 18   12.9    59.0                              
1945-02-12 00   13.4    58.4                              
1945-02-12 06   14.1    57.3                              
1945-02-12 12   14.8    56.0                              
1945-02-12 18   15.5    54.4                              
1945-02-13 00   16.2    53.0                              
1945-02-13 06   16.6    52.4                              
1945-02-13 12   16.7    51.9                              
1945-02-13 18   17.0    51.2                              
1945-02-14 00   17.3    50.5                              
1945-02-14 06   17.4    49.9                              
1945-02-14 12   17.6    49.4                              
1945-02-14 18   17.8    48.7                              
1945-02-15 00   18.1    48.0                              
1945-02-15 06   18.3    47.0                              
1945-02-15 12   18.6    46.0                              
1945-02-15 18   19.1    45.5                              
1945-02-16 00   20.0    45.3                              
1945-02-16 06   21.0    45.4                              
1945-02-16 12   22.0    45.7                              
1945-02-16 18   23.0    46.3                              
1945-02-17 00   24.0    46.9                              
1945-02-17 06   24.7    47.3                              
1945-02-17 12   25.1    47.8                              
1945-02-17 18   25.7    48.2                              
1945-02-18 00   26.3    48.7                              
Winds are 1-min average.

Tropical cyclone tracks developed by Michael Bath using data from the Joint Typhoon Warning Centre Best Tracks and Google Maps.


[Australian Severe Weather index] [Copyright Notice] [Email Contacts] [Search This Site] [Privacy Policy]
Document: tropical_cyclone_194507.htm Updated: 18 September 2016